sensor_id;sensor_type;location;lat;lon;timestamp;temperature;humidity
29917;DHT22;16786;49.466;11.068;2024-02-26T00:01:51;4.00;99.90
29917;DHT22;16786;49.466;11.068;2024-02-26T00:04:19;4.00;99.90
29917;DHT22;16786;49.466;11.068;2024-02-26T00:06:46;4.00;99.90
29917;DHT22;16786;49.466;11.068;2024-02-26T00:09:13;4.00;99.90
29917;DHT22;16786;49.466;11.068;2024-02-26T00:11:40;4.00;99.90
29917;DHT22;16786;49.466;11.068;2024-02-26T00:14:07;4.00;99.90
29917;DHT22;16786;49.466;11.068;2024-02-26T00:16:34;4.00;99.90
29917;DHT22;16786;49.466;11.068;2024-02-26T00:19:01;4.00;99.90
29917;DHT22;16786;49.466;11.068;2024-02-26T00:21:28;4.00;99.90
29917;DHT22;16786;49.466;11.068;2024-02-26T00:23:55;4.00;99.90
29917;DHT22;16786;49.466;11.068;2024-02-26T00:26:22;4.00;99.90
29917;DHT22;16786;49.466;11.068;2024-02-26T00:28:49;4.00;99.90
29917;DHT22;16786;49.466;11.068;2024-02-26T00:31:16;4.10;99.90
29917;DHT22;16786;49.466;11.068;2024-02-26T00:33:43;4.00;99.90
29917;DHT22;16786;49.466;11.068;2024-02-26T00:36:10;4.00;99.90
29917;DHT22;16786;49.466;11.068;2024-02-26T00:38:37;4.10;99.90
29917;DHT22;16786;49.466;11.068;2024-02-26T00:41:04;4.10;99.90
29917;DHT22;16786;49.466;11.068;2024-02-26T00:43:31;4.10;99.90
29917;DHT22;16786;49.466;11.068;2024-02-26T00:45:58;4.00;99.90
29917;DHT22;16786;49.466;11.068;2024-02-26T00:48:25;4.00;99.90
29917;DHT22;16786;49.466;11.068;2024-02-26T00:50:52;4.00;99.90
29917;DHT22;16786;49.466;11.068;2024-02-26T00:53:19;4.10;99.90
29917;DHT22;16786;49.466;11.068;2024-02-26T00:55:46;4.20;99.90
29917;DHT22;16786;49.466;11.068;2024-02-26T00:58:13;4.10;99.90
29917;DHT22;16786;49.466;11.068;2024-02-26T01:00:40;4.20;99.90
29917;DHT22;16786;49.466;11.068;2024-02-26T01:03:07;4.20;99.90
29917;DHT22;16786;49.466;11.068;2024-02-26T01:05:35;4.30;99.90
29917;DHT22;16786;49.466;11.068;2024-02-26T01:08:02;4.20;99.90
29917;DHT22;16786;49.466;11.068;2024-02-26T01:10:29;4.20;99.90
29917;DHT22;16786;49.466;11.068;2024-02-26T01:12:56;4.20;99.90
29917;DHT22;16786;49.466;11.068;2024-02-26T01:15:23;4.20;99.90
29917;DHT22;16786;49.466;11.068;2024-02-26T01:17:50;4.10;99.90
29917;DHT22;16786;49.466;11.068;2024-02-26T01:20:18;4.10;99.90
29917;DHT22;16786;49.466;11.068;2024-02-26T01:22:45;4.10;99.90
29917;DHT22;16786;49.466;11.068;2024-02-26T01:25:12;4.10;99.90
29917;DHT22;16786;49.466;11.068;2024-02-26T01:27:39;4.00;99.90
29917;DHT22;16786;49.466;11.068;2024-02-26T01:30:08;4.00;99.90
29917;DHT22;16786;49.466;11.068;2024-02-26T01:32:35;4.00;99.90
29917;DHT22;16786;49.466;11.068;2024-02-26T01:35:03;4.00;99.90
29917;DHT22;16786;49.466;11.068;2024-02-26T01:37:30;4.00;99.90
29917;DHT22;16786;49.466;11.068;2024-02-26T01:39:57;4.00;99.90
29917;DHT22;16786;49.466;11.068;2024-02-26T01:42:24;4.10;99.90
29917;DHT22;16786;49.466;11.068;2024-02-26T01:44:51;4.10;99.90
29917;DHT22;16786;49.466;11.068;2024-02-26T01:47:18;4.10;99.90
29917;DHT22;16786;49.466;11.068;2024-02-26T01:49:45;4.20;99.90
29917;DHT22;16786;49.466;11.068;2024-02-26T01:52:12;4.20;99.90
29917;DHT22;16786;49.466;11.068;2024-02-26T01:54:40;4.20;99.90
29917;DHT22;16786;49.466;11.068;2024-02-26T01:57:08;4.20;99.90
29917;DHT22;16786;49.466;11.068;2024-02-26T01:59:35;4.30;99.90
29917;DHT22;16786;49.466;11.068;2024-02-26T02:02:06;4.30;99.90
29917;DHT22;16786;49.466;11.068;2024-02-26T02:04:34;4.30;99.90
29917;DHT22;16786;49.466;11.068;2024-02-26T02:07:02;4.40;99.90
29917;DHT22;16786;49.466;11.068;2024-02-26T02:09:30;4.40;99.90
29917;DHT22;16786;49.466;11.068;2024-02-26T02:11:58;4.40;99.90
29917;DHT22;16786;49.466;11.068;2024-02-26T02:14:26;4.40;99.90
29917;DHT22;16786;49.466;11.068;2024-02-26T02:16:52;4.40;99.90
29917;DHT22;16786;49.466;11.068;2024-02-26T02:19:19;4.40;99.90
29917;DHT22;16786;49.466;11.068;2024-02-26T02:21:46;4.50;99.90
29917;DHT22;16786;49.466;11.068;2024-02-26T02:24:13;4.50;99.90
29917;DHT22;16786;49.466;11.068;2024-02-26T02:26:40;4.50;99.90
29917;DHT22;16786;49.466;11.068;2024-02-26T02:29:08;4.50;99.90
29917;DHT22;16786;49.466;11.068;2024-02-26T02:31:36;4.50;99.90
29917;DHT22;16786;49.466;11.068;2024-02-26T02:34:03;4.50;99.90
29917;DHT22;16786;49.466;11.068;2024-02-26T02:36:30;4.50;99.90
29917;DHT22;16786;49.466;11.068;2024-02-26T02:38:57;4.50;99.90
29917;DHT22;16786;49.466;11.068;2024-02-26T02:41:24;4.50;99.90
29917;DHT22;16786;49.466;11.068;2024-02-26T02:43:53;4.50;99.90
29917;DHT22;16786;49.466;11.068;2024-02-26T02:46:20;4.50;99.90
29917;DHT22;16786;49.466;11.068;2024-02-26T02:48:47;4.40;99.90
29917;DHT22;16786;49.466;11.068;2024-02-26T02:51:14;4.50;99.90
29917;DHT22;16786;49.466;11.068;2024-02-26T02:53:41;4.40;99.90
29917;DHT22;16786;49.466;11.068;2024-02-26T02:56:08;4.40;99.90
29917;DHT22;16786;49.466;11.068;2024-02-26T02:58:35;4.40;99.90
29917;DHT22;16786;49.466;11.068;2024-02-26T03:01:02;4.30;99.90
29917;DHT22;16786;49.466;11.068;2024-02-26T03:03:29;4.30;99.90
29917;DHT22;16786;49.466;11.068;2024-02-26T03:05:56;4.40;99.90
29917;DHT22;16786;49.466;11.068;2024-02-26T03:08:24;4.40;99.90
29917;DHT22;16786;49.466;11.068;2024-02-26T03:10:53;4.40;99.90
29917;DHT22;16786;49.466;11.068;2024-02-26T03:13:20;4.40;99.90
29917;DHT22;16786;49.466;11.068;2024-02-26T03:15:47;4.40;99.90
29917;DHT22;16786;49.466;11.068;2024-02-26T03:18:13;4.40;99.90
29917;DHT22;16786;49.466;11.068;2024-02-26T03:20:40;4.50;99.90
29917;DHT22;16786;49.466;11.068;2024-02-26T03:23:08;4.50;99.90
29917;DHT22;16786;49.466;11.068;2024-02-26T03:25:38;4.50;99.90
29917;DHT22;16786;49.466;11.068;2024-02-26T03:28:05;4.50;99.90
29917;DHT22;16786;49.466;11.068;2024-02-26T03:30:33;4.50;99.90
29917;DHT22;16786;49.466;11.068;2024-02-26T03:33:01;4.50;99.90
29917;DHT22;16786;49.466;11.068;2024-02-26T03:39:23;4.50;99.90
29917;DHT22;16786;49.466;11.068;2024-02-26T03:41:50;4.50;99.90
29917;DHT22;16786;49.466;11.068;2024-02-26T03:44:17;4.40;99.90
29917;DHT22;16786;49.466;11.068;2024-02-26T03:46:43;4.40;99.90
29917;DHT22;16786;49.466;11.068;2024-02-26T03:49:10;4.40;99.90
29917;DHT22;16786;49.466;11.068;2024-02-26T03:51:37;4.30;99.90
29917;DHT22;16786;49.466;11.068;2024-02-26T03:54:04;4.30;99.90
29917;DHT22;16786;49.466;11.068;2024-02-26T03:56:31;4.30;99.90
29917;DHT22;16786;49.466;11.068;2024-02-26T03:58:58;4.20;99.90
29917;DHT22;16786;49.466;11.068;2024-02-26T04:01:26;4.20;99.90
29917;DHT22;16786;49.466;11.068;2024-02-26T04:03:54;4.20;99.90
29917;DHT22;16786;49.466;11.068;2024-02-26T04:06:21;4.10;99.90
29917;DHT22;16786;49.466;11.068;2024-02-26T04:08:49;4.20;99.90
29917;DHT22;16786;49.466;11.068;2024-02-26T04:11:16;4.20;99.90
29917;DHT22;16786;49.466;11.068;2024-02-26T04:13:45;4.30;99.90
29917;DHT22;16786;49.466;11.068;2024-02-26T04:16:17;4.30;99.90
29917;DHT22;16786;49.466;11.068;2024-02-26T04:18:45;4.30;99.90
29917;DHT22;16786;49.466;11.068;2024-02-26T04:21:12;4.30;99.90
29917;DHT22;16786;49.466;11.068;2024-02-26T04:23:39;4.30;99.90
29917;DHT22;16786;49.466;11.068;2024-02-26T04:26:06;4.40;99.90
29917;DHT22;16786;49.466;11.068;2024-02-26T04:28:32;4.40;99.90
29917;DHT22;16786;49.466;11.068;2024-02-26T04:30:59;4.50;99.90
29917;DHT22;16786;49.466;11.068;2024-02-26T04:33:26;4.50;99.90
29917;DHT22;16786;49.466;11.068;2024-02-26T04:35:53;4.50;99.90
29917;DHT22;16786;49.466;11.068;2024-02-26T04:38:20;4.60;99.90
29917;DHT22;16786;49.466;11.068;2024-02-26T04:40:47;4.60;99.90
29917;DHT22;16786;49.466;11.068;2024-02-26T04:43:14;4.60;99.90
29917;DHT22;16786;49.466;11.068;2024-02-26T04:45:41;4.60;99.90
29917;DHT22;16786;49.466;11.068;2024-02-26T04:48:08;4.60;99.90
29917;DHT22;16786;49.466;11.068;2024-02-26T04:50:35;4.60;99.90
29917;DHT22;16786;49.466;11.068;2024-02-26T04:53:02;4.70;99.90
29917;DHT22;16786;49.466;11.068;2024-02-26T04:55:29;4.70;99.90
29917;DHT22;16786;49.466;11.068;2024-02-26T04:57:56;4.70;99.90
29917;DHT22;16786;49.466;11.068;2024-02-26T05:00:23;4.70;99.90
29917;DHT22;16786;49.466;11.068;2024-02-26T05:02:50;4.70;99.90
29917;DHT22;16786;49.466;11.068;2024-02-26T05:05:17;4.70;99.90
29917;DHT22;16786;49.466;11.068;2024-02-26T05:07:45;4.80;99.90
29917;DHT22;16786;49.466;11.068;2024-02-26T05:10:12;4.80;99.90
29917;DHT22;16786;49.466;11.068;2024-02-26T05:12:38;4.80;99.90
29917;DHT22;16786;49.466;11.068;2024-02-26T05:15:07;4.80;99.90
29917;DHT22;16786;49.466;11.068;2024-02-26T05:17:34;4.80;99.90
29917;DHT22;16786;49.466;11.068;2024-02-26T05:20:01;4.80;99.90
29917;DHT22;16786;49.466;11.068;2024-02-26T05:22:29;4.80;99.90
29917;DHT22;16786;49.466;11.068;2024-02-26T05:24:55;4.80;99.90
29917;DHT22;16786;49.466;11.068;2024-02-26T05:27:23;4.80;99.90
29917;DHT22;16786;49.466;11.068;2024-02-26T05:29:51;4.80;99.90
29917;DHT22;16786;49.466;11.068;2024-02-26T05:32:18;4.80;99.90
29917;DHT22;16786;49.466;11.068;2024-02-26T05:34:45;4.80;99.90
29917;DHT22;16786;49.466;11.068;2024-02-26T05:37:12;4.80;99.90
29917;DHT22;16786;49.466;11.068;2024-02-26T05:39:39;4.80;99.90
29917;DHT22;16786;49.466;11.068;2024-02-26T05:42:06;4.80;99.90
29917;DHT22;16786;49.466;11.068;2024-02-26T05:44:35;4.80;99.90
29917;DHT22;16786;49.466;11.068;2024-02-26T05:47:02;4.80;99.90
29917;DHT22;16786;49.466;11.068;2024-02-26T05:49:32;4.80;99.90
29917;DHT22;16786;49.466;11.068;2024-02-26T05:52:00;4.80;99.90
29917;DHT22;16786;49.466;11.068;2024-02-26T05:54:27;4.90;99.90
29917;DHT22;16786;49.466;11.068;2024-02-26T05:56:54;4.90;99.90
29917;DHT22;16786;49.466;11.068;2024-02-26T05:59:21;4.80;99.90
29917;DHT22;16786;49.466;11.068;2024-02-26T06:01:48;4.80;99.90
29917;DHT22;16786;49.466;11.068;2024-02-26T06:04:15;4.80;99.90
29917;DHT22;16786;49.466;11.068;2024-02-26T06:06:44;4.80;99.90
29917;DHT22;16786;49.466;11.068;2024-02-26T06:09:12;4.80;99.90
29917;DHT22;16786;49.466;11.068;2024-02-26T06:11:39;4.80;99.90
29917;DHT22;16786;49.466;11.068;2024-02-26T06:14:06;4.80;99.90
29917;DHT22;16786;49.466;11.068;2024-02-26T06:16:33;4.80;99.90
29917;DHT22;16786;49.466;11.068;2024-02-26T06:19:00;4.80;99.90
29917;DHT22;16786;49.466;11.068;2024-02-26T06:21:27;4.90;99.90
29917;DHT22;16786;49.466;11.068;2024-02-26T06:23:54;4.90;99.90
29917;DHT22;16786;49.466;11.068;2024-02-26T06:26:21;4.90;99.90
29917;DHT22;16786;49.466;11.068;2024-02-26T06:28:48;4.90;99.90
29917;DHT22;16786;49.466;11.068;2024-02-26T06:31:15;5.00;99.90
29917;DHT22;16786;49.466;11.068;2024-02-26T06:33:42;4.90;99.90
29917;DHT22;16786;49.466;11.068;2024-02-26T06:36:09;5.00;99.90
29917;DHT22;16786;49.466;11.068;2024-02-26T06:38:36;5.00;99.90
29917;DHT22;16786;49.466;11.068;2024-02-26T06:41:03;5.00;99.90
29917;DHT22;16786;49.466;11.068;2024-02-26T06:43:30;5.00;99.90
29917;DHT22;16786;49.466;11.068;2024-02-26T06:45:57;5.10;99.90
29917;DHT22;16786;49.466;11.068;2024-02-26T06:48:25;5.20;99.90
29917;DHT22;16786;49.466;11.068;2024-02-26T06:50:52;5.20;99.90
29917;DHT22;16786;49.466;11.068;2024-02-26T06:53:19;5.20;99.90
29917;DHT22;16786;49.466;11.068;2024-02-26T06:55:45;5.30;99.90
29917;DHT22;16786;49.466;11.068;2024-02-26T06:58:12;5.30;99.90
29917;DHT22;16786;49.466;11.068;2024-02-26T07:00:40;5.30;99.90
29917;DHT22;16786;49.466;11.068;2024-02-26T07:03:07;5.40;99.90
29917;DHT22;16786;49.466;11.068;2024-02-26T07:05:34;5.50;99.90
29917;DHT22;16786;49.466;11.068;2024-02-26T07:08:01;5.60;99.90
29917;DHT22;16786;49.466;11.068;2024-02-26T07:10:28;5.70;99.90
29917;DHT22;16786;49.466;11.068;2024-02-26T07:12:55;5.70;99.90
29917;DHT22;16786;49.466;11.068;2024-02-26T07:15:22;5.80;99.90
29917;DHT22;16786;49.466;11.068;2024-02-26T07:17:49;5.90;99.90
29917;DHT22;16786;49.466;11.068;2024-02-26T07:20:16;6.00;99.90
29917;DHT22;16786;49.466;11.068;2024-02-26T07:22:45;6.10;99.90
29917;DHT22;16786;49.466;11.068;2024-02-26T07:25:12;6.10;99.90
29917;DHT22;16786;49.466;11.068;2024-02-26T07:27:40;6.10;99.90
29917;DHT22;16786;49.466;11.068;2024-02-26T07:30:07;6.10;99.90
29917;DHT22;16786;49.466;11.068;2024-02-26T07:32:36;6.20;99.90
29917;DHT22;16786;49.466;11.068;2024-02-26T07:35:03;6.20;99.90
29917;DHT22;16786;49.466;11.068;2024-02-26T07:37:30;6.30;99.90
29917;DHT22;16786;49.466;11.068;2024-02-26T07:39:57;6.50;99.90
29917;DHT22;16786;49.466;11.068;2024-02-26T07:42:24;6.70;99.90
29917;DHT22;16786;49.466;11.068;2024-02-26T07:44:51;6.90;99.90
29917;DHT22;16786;49.466;11.068;2024-02-26T07:47:19;7.20;99.90
29917;DHT22;16786;49.466;11.068;2024-02-26T07:49:46;7.40;99.90
29917;DHT22;16786;49.466;11.068;2024-02-26T07:52:13;7.50;99.90
29917;DHT22;16786;49.466;11.068;2024-02-26T07:54:40;7.60;99.90
29917;DHT22;16786;49.466;11.068;2024-02-26T07:57:07;7.70;99.90
29917;DHT22;16786;49.466;11.068;2024-02-26T07:59:34;7.80;99.90
29917;DHT22;16786;49.466;11.068;2024-02-26T08:02:01;7.80;99.90
29917;DHT22;16786;49.466;11.068;2024-02-26T08:04:30;7.80;99.90
29917;DHT22;16786;49.466;11.068;2024-02-26T08:06:57;7.90;99.90
29917;DHT22;16786;49.466;11.068;2024-02-26T08:09:24;8.10;99.90
29917;DHT22;16786;49.466;11.068;2024-02-26T08:11:51;8.10;99.90
29917;DHT22;16786;49.466;11.068;2024-02-26T08:14:18;8.20;99.90
29917;DHT22;16786;49.466;11.068;2024-02-26T08:16:45;8.20;99.90
29917;DHT22;16786;49.466;11.068;2024-02-26T08:19:12;8.20;99.90
29917;DHT22;16786;49.466;11.068;2024-02-26T08:21:42;8.20;99.90
29917;DHT22;16786;49.466;11.068;2024-02-26T08:24:09;8.20;99.90
29917;DHT22;16786;49.466;11.068;2024-02-26T08:26:36;8.00;99.90
29917;DHT22;16786;49.466;11.068;2024-02-26T08:29:03;8.00;99.90
29917;DHT22;16786;49.466;11.068;2024-02-26T08:31:30;8.00;99.90
29917;DHT22;16786;49.466;11.068;2024-02-26T08:33:57;8.00;99.90
29917;DHT22;16786;49.466;11.068;2024-02-26T08:36:26;7.90;99.90
29917;DHT22;16786;49.466;11.068;2024-02-26T08:38:53;7.90;99.90
29917;DHT22;16786;49.466;11.068;2024-02-26T08:41:20;7.80;99.90
29917;DHT22;16786;49.466;11.068;2024-02-26T08:43:47;7.90;99.90
29917;DHT22;16786;49.466;11.068;2024-02-26T08:46:14;7.90;99.90
29917;DHT22;16786;49.466;11.068;2024-02-26T08:48:40;8.00;99.90
29917;DHT22;16786;49.466;11.068;2024-02-26T08:51:08;8.10;99.90
29917;DHT22;16786;49.466;11.068;2024-02-26T08:53:36;8.10;99.90
29917;DHT22;16786;49.466;11.068;2024-02-26T08:56:10;8.20;99.90
29917;DHT22;16786;49.466;11.068;2024-02-26T08:58:45;8.30;99.90
29917;DHT22;16786;49.466;11.068;2024-02-26T09:01:15;8.50;99.90
29917;DHT22;16786;49.466;11.068;2024-02-26T09:03:43;8.60;99.90
29917;DHT22;16786;49.466;11.068;2024-02-26T09:06:10;8.80;99.90
29917;DHT22;16786;49.466;11.068;2024-02-26T09:08:38;9.00;99.90
29917;DHT22;16786;49.466;11.068;2024-02-26T09:11:05;9.20;99.90
29917;DHT22;16786;49.466;11.068;2024-02-26T09:13:32;9.40;99.90
29917;DHT22;16786;49.466;11.068;2024-02-26T09:15:59;9.60;99.90
29917;DHT22;16786;49.466;11.068;2024-02-26T09:18:26;9.80;99.90
29917;DHT22;16786;49.466;11.068;2024-02-26T09:20:55;10.00;99.90
29917;DHT22;16786;49.466;11.068;2024-02-26T09:23:22;10.20;99.90
29917;DHT22;16786;49.466;11.068;2024-02-26T09:25:49;10.40;99.90
29917;DHT22;16786;49.466;11.068;2024-02-26T09:28:16;10.70;99.90
29917;DHT22;16786;49.466;11.068;2024-02-26T09:30:44;11.00;99.90
29917;DHT22;16786;49.466;11.068;2024-02-26T09:33:13;11.40;99.90
29917;DHT22;16786;49.466;11.068;2024-02-26T09:35:40;11.60;99.90
29917;DHT22;16786;49.466;11.068;2024-02-26T09:38:08;11.80;99.90
29917;DHT22;16786;49.466;11.068;2024-02-26T09:40:35;11.90;99.90
29917;DHT22;16786;49.466;11.068;2024-02-26T09:43:05;11.70;99.90
29917;DHT22;16786;49.466;11.068;2024-02-26T09:45:33;11.80;99.90
29917;DHT22;16786;49.466;11.068;2024-02-26T09:48:02;11.80;99.90
29917;DHT22;16786;49.466;11.068;2024-02-26T09:50:31;11.80;99.90
29917;DHT22;16786;49.466;11.068;2024-02-26T09:52:59;11.60;99.90
29917;DHT22;16786;49.466;11.068;2024-02-26T09:55:29;11.50;99.90
29917;DHT22;16786;49.466;11.068;2024-02-26T09:57:57;11.50;99.90
29917;DHT22;16786;49.466;11.068;2024-02-26T10:00:26;11.60;99.90
29917;DHT22;16786;49.466;11.068;2024-02-26T10:02:58;11.80;99.90
29917;DHT22;16786;49.466;11.068;2024-02-26T10:05:26;11.80;99.90
29917;DHT22;16786;49.466;11.068;2024-02-26T10:07:53;11.90;99.90
29917;DHT22;16786;49.466;11.068;2024-02-26T10:10:22;12.00;99.90
29917;DHT22;16786;49.466;11.068;2024-02-26T10:12:50;11.90;99.90
29917;DHT22;16786;49.466;11.068;2024-02-26T10:15:16;11.80;99.90
29917;DHT22;16786;49.466;11.068;2024-02-26T10:17:43;11.70;99.90
29917;DHT22;16786;49.466;11.068;2024-02-26T10:20:15;11.80;99.90
29917;DHT22;16786;49.466;11.068;2024-02-26T10:22:44;12.00;99.90
29917;DHT22;16786;49.466;11.068;2024-02-26T10:25:11;12.10;99.90
29917;DHT22;16786;49.466;11.068;2024-02-26T10:27:40;12.20;99.90
29917;DHT22;16786;49.466;11.068;2024-02-26T10:32:46;12.40;99.90
29917;DHT22;16786;49.466;11.068;2024-02-26T10:35:18;12.60;99.90
29917;DHT22;16786;49.466;11.068;2024-02-26T10:37:46;12.80;99.90
29917;DHT22;16786;49.466;11.068;2024-02-26T10:40:14;12.90;99.90
29917;DHT22;16786;49.466;11.068;2024-02-26T10:42:42;13.00;99.90
29917;DHT22;16786;49.466;11.068;2024-02-26T10:45:10;13.00;99.90
29917;DHT22;16786;49.466;11.068;2024-02-26T10:47:37;13.10;99.90
29917;DHT22;16786;49.466;11.068;2024-02-26T10:50:06;13.10;99.90
29917;DHT22;16786;49.466;11.068;2024-02-26T10:52:35;13.20;99.90
29917;DHT22;16786;49.466;11.068;2024-02-26T10:55:04;13.30;99.90
29917;DHT22;16786;49.466;11.068;2024-02-26T10:57:40;13.30;99.90
29917;DHT22;16786;49.466;11.068;2024-02-26T11:00:08;13.40;99.90
29917;DHT22;16786;49.466;11.068;2024-02-26T11:02:40;13.70;99.90
29917;DHT22;16786;49.466;11.068;2024-02-26T11:05:08;13.90;99.90
29917;DHT22;16786;49.466;11.068;2024-02-26T11:07:35;14.10;99.90
29917;DHT22;16786;49.466;11.068;2024-02-26T11:10:05;14.30;99.90
29917;DHT22;16786;49.466;11.068;2024-02-26T11:12:34;14.30;99.90
29917;DHT22;16786;49.466;11.068;2024-02-26T11:15:05;14.30;99.90
29917;DHT22;16786;49.466;11.068;2024-02-26T11:17:33;14.50;99.90
29917;DHT22;16786;49.466;11.068;2024-02-26T11:20:01;14.60;99.90
29917;DHT22;16786;49.466;11.068;2024-02-26T11:22:32;14.90;99.90
29917;DHT22;16786;49.466;11.068;2024-02-26T11:25:00;15.30;99.90
29917;DHT22;16786;49.466;11.068;2024-02-26T11:27:30;15.70;99.90
29917;DHT22;16786;49.466;11.068;2024-02-26T11:30:00;16.00;99.90
29917;DHT22;16786;49.466;11.068;2024-02-26T11:32:28;16.10;99.90
29917;DHT22;16786;49.466;11.068;2024-02-26T11:34:58;16.20;99.90
29917;DHT22;16786;49.466;11.068;2024-02-26T11:37:25;16.40;99.90
29917;DHT22;16786;49.466;11.068;2024-02-26T11:39:52;16.70;99.90
29917;DHT22;16786;49.466;11.068;2024-02-26T11:42:23;17.10;99.90
29917;DHT22;16786;49.466;11.068;2024-02-26T11:44:51;17.30;99.90
29917;DHT22;16786;49.466;11.068;2024-02-26T11:47:20;17.40;99.90
29917;DHT22;16786;49.466;11.068;2024-02-26T11:49:47;17.80;99.90
29917;DHT22;16786;49.466;11.068;2024-02-26T11:52:15;17.70;99.90
29917;DHT22;16786;49.466;11.068;2024-02-26T11:54:48;18.20;99.50
29917;DHT22;16786;49.466;11.068;2024-02-26T11:57:38;18.60;97.70
29917;DHT22;16786;49.466;11.068;2024-02-26T12:00:13;18.80;96.60
29917;DHT22;16786;49.466;11.068;2024-02-26T12:02:51;18.90;96.00
29917;DHT22;16786;49.466;11.068;2024-02-26T12:05:25;19.30;96.20
29917;DHT22;16786;49.466;11.068;2024-02-26T12:07:55;19.60;97.20
29917;DHT22;16786;49.466;11.068;2024-02-26T12:10:31;19.90;95.40
29917;DHT22;16786;49.466;11.068;2024-02-26T12:13:07;19.60;92.80
29917;DHT22;16786;49.466;11.068;2024-02-26T12:18:08;20.70;94.10
29917;DHT22;16786;49.466;11.068;2024-02-26T12:20:39;20.80;91.80
29917;DHT22;16786;49.466;11.068;2024-02-26T12:23:06;21.30;90.80
29917;DHT22;16786;49.466;11.068;2024-02-26T12:25:33;21.60;89.10
29917;DHT22;16786;49.466;11.068;2024-02-26T12:28:00;21.70;86.60
29917;DHT22;16786;49.466;11.068;2024-02-26T12:30:27;22.40;87.00
29917;DHT22;16786;49.466;11.068;2024-02-26T12:33:00;22.80;81.40
29917;DHT22;16786;49.466;11.068;2024-02-26T12:35:28;22.80;79.70
29917;DHT22;16786;49.466;11.068;2024-02-26T12:37:55;22.30;81.90
29917;DHT22;16786;49.466;11.068;2024-02-26T12:40:22;21.70;79.50
29917;DHT22;16786;49.466;11.068;2024-02-26T12:42:50;20.80;81.30
29917;DHT22;16786;49.466;11.068;2024-02-26T12:45:16;20.40;84.20
29917;DHT22;16786;49.466;11.068;2024-02-26T12:47:45;20.30;86.90
29917;DHT22;16786;49.466;11.068;2024-02-26T12:50:16;20.70;85.00
29917;DHT22;16786;49.466;11.068;2024-02-26T12:52:45;22.00;84.90
29917;DHT22;16786;49.466;11.068;2024-02-26T12:55:18;23.30;81.50
29917;DHT22;16786;49.466;11.068;2024-02-26T12:57:46;24.50;75.80
29917;DHT22;16786;49.466;11.068;2024-02-26T13:00:22;25.20;71.40
29917;DHT22;16786;49.466;11.068;2024-02-26T13:02:51;26.30;67.80
29917;DHT22;16786;49.466;11.068;2024-02-26T13:05:19;26.60;62.90
29917;DHT22;16786;49.466;11.068;2024-02-26T13:07:46;26.30;62.00
29917;DHT22;16786;49.466;11.068;2024-02-26T13:10:14;27.00;60.00
29917;DHT22;16786;49.466;11.068;2024-02-26T13:12:44;27.20;58.00
29917;DHT22;16786;49.466;11.068;2024-02-26T13:15:21;28.00;57.00
29917;DHT22;16786;49.466;11.068;2024-02-26T13:17:49;28.70;55.60
29917;DHT22;16786;49.466;11.068;2024-02-26T13:20:29;29.50;55.20
29917;DHT22;16786;49.466;11.068;2024-02-26T13:23:05;30.60;51.80
29917;DHT22;16786;49.466;11.068;2024-02-26T13:25:34;31.00;49.90
29917;DHT22;16786;49.466;11.068;2024-02-26T13:28:18;31.20;48.80
29917;DHT22;16786;49.466;11.068;2024-02-26T13:30:56;31.70;46.30
29917;DHT22;16786;49.466;11.068;2024-02-26T13:33:25;31.50;47.20
29917;DHT22;16786;49.466;11.068;2024-02-26T13:35:54;30.70;47.90
29917;DHT22;16786;49.466;11.068;2024-02-26T13:38:21;30.00;47.00
29917;DHT22;16786;49.466;11.068;2024-02-26T13:40:50;29.60;47.30
29917;DHT22;16786;49.466;11.068;2024-02-26T13:43:17;29.80;46.40
29917;DHT22;16786;49.466;11.068;2024-02-26T13:45:44;29.10;47.30
29917;DHT22;16786;49.466;11.068;2024-02-26T13:48:12;28.50;46.30
29917;DHT22;16786;49.466;11.068;2024-02-26T13:50:43;27.40;47.40
29917;DHT22;16786;49.466;11.068;2024-02-26T13:53:11;25.90;48.00
29917;DHT22;16786;49.466;11.068;2024-02-26T13:55:40;24.30;50.50
29917;DHT22;16786;49.466;11.068;2024-02-26T13:58:12;22.80;52.10
29917;DHT22;16786;49.466;11.068;2024-02-26T14:00:40;21.80;53.90
29917;DHT22;16786;49.466;11.068;2024-02-26T14:03:09;21.00;55.20
29917;DHT22;16786;49.466;11.068;2024-02-26T14:05:36;20.40;56.40
29917;DHT22;16786;49.466;11.068;2024-02-26T14:08:03;19.60;57.00
29917;DHT22;16786;49.466;11.068;2024-02-26T14:10:31;19.10;57.20
29917;DHT22;16786;49.466;11.068;2024-02-26T14:12:59;18.60;57.80
29917;DHT22;16786;49.466;11.068;2024-02-26T14:15:27;18.20;59.50
29917;DHT22;16786;49.466;11.068;2024-02-26T14:17:55;17.90;60.10
29917;DHT22;16786;49.466;11.068;2024-02-26T14:20:25;17.60;60.60
29917;DHT22;16786;49.466;11.068;2024-02-26T14:22:53;17.40;60.80
29917;DHT22;16786;49.466;11.068;2024-02-26T14:25:21;17.10;61.30
29917;DHT22;16786;49.466;11.068;2024-02-26T14:27:48;16.90;62.00
29917;DHT22;16786;49.466;11.068;2024-02-26T14:30:15;16.40;62.70
29917;DHT22;16786;49.466;11.068;2024-02-26T14:32:42;16.10;64.90
29917;DHT22;16786;49.466;11.068;2024-02-26T14:35:11;15.80;65.30
29917;DHT22;16786;49.466;11.068;2024-02-26T14:37:44;15.50;65.80
29917;DHT22;16786;49.466;11.068;2024-02-26T14:40:16;15.10;67.60
29917;DHT22;16786;49.466;11.068;2024-02-26T14:42:43;14.80;69.60
29917;DHT22;16786;49.466;11.068;2024-02-26T14:45:10;14.70;71.00
29917;DHT22;16786;49.466;11.068;2024-02-26T14:47:38;14.50;71.90
29917;DHT22;16786;49.466;11.068;2024-02-26T14:50:06;14.40;73.70
29917;DHT22;16786;49.466;11.068;2024-02-26T14:52:33;14.20;75.80
29917;DHT22;16786;49.466;11.068;2024-02-26T14:55:00;14.10;78.40
29917;DHT22;16786;49.466;11.068;2024-02-26T14:57:28;14.00;78.10
29917;DHT22;16786;49.466;11.068;2024-02-26T14:59:55;13.90;80.40
29917;DHT22;16786;49.466;11.068;2024-02-26T15:02:22;13.70;80.70
29917;DHT22;16786;49.466;11.068;2024-02-26T15:04:49;13.50;82.70
29917;DHT22;16786;49.466;11.068;2024-02-26T15:07:17;13.40;84.00
29917;DHT22;16786;49.466;11.068;2024-02-26T15:09:44;13.30;85.30
29917;DHT22;16786;49.466;11.068;2024-02-26T15:12:12;13.20;87.30
29917;DHT22;16786;49.466;11.068;2024-02-26T15:14:38;13.10;88.10
29917;DHT22;16786;49.466;11.068;2024-02-26T15:17:06;13.00;90.00
29917;DHT22;16786;49.466;11.068;2024-02-26T15:19:37;13.00;90.40
29917;DHT22;16786;49.466;11.068;2024-02-26T15:22:05;12.90;90.80
29917;DHT22;16786;49.466;11.068;2024-02-26T15:24:32;12.70;91.70
29917;DHT22;16786;49.466;11.068;2024-02-26T15:26:59;12.60;92.90
29917;DHT22;16786;49.466;11.068;2024-02-26T15:29:26;12.60;92.80
29917;DHT22;16786;49.466;11.068;2024-02-26T15:31:53;12.50;93.70
29917;DHT22;16786;49.466;11.068;2024-02-26T15:34:20;12.40;94.20
29917;DHT22;16786;49.466;11.068;2024-02-26T15:36:47;12.30;94.70
29917;DHT22;16786;49.466;11.068;2024-02-26T15:39:14;12.20;95.70